sensor_id;sensor_type;location;lat;lon;timestamp;temperature;humidity
28520;DHT22;15732;48.534;20.382;2024-01-27T00:02:26;2.80;99.90
28520;DHT22;15732;48.534;20.382;2024-01-27T00:04:53;2.90;99.90
28520;DHT22;15732;48.534;20.382;2024-01-27T00:07:25;2.90;99.90
28520;DHT22;15732;48.534;20.382;2024-01-27T00:09:57;3.00;99.90
28520;DHT22;15732;48.534;20.382;2024-01-27T00:12:29;3.10;99.90
28520;DHT22;15732;48.534;20.382;2024-01-27T00:15:00;3.10;99.90
28520;DHT22;15732;48.534;20.382;2024-01-27T00:17:31;3.10;99.90
28520;DHT22;15732;48.534;20.382;2024-01-27T00:20:03;3.10;99.90
28520;DHT22;15732;48.534;20.382;2024-01-27T00:22:30;3.10;99.90
28520;DHT22;15732;48.534;20.382;2024-01-27T00:24:58;3.00;99.90
28520;DHT22;15732;48.534;20.382;2024-01-27T00:27:29;3.00;99.90
28520;DHT22;15732;48.534;20.382;2024-01-27T00:29:59;3.00;99.90
28520;DHT22;15732;48.534;20.382;2024-01-27T00:32:30;3.00;99.90
28520;DHT22;15732;48.534;20.382;2024-01-27T00:35:03;2.90;99.90
28520;DHT22;15732;48.534;20.382;2024-01-27T00:37:31;2.90;99.90
28520;DHT22;15732;48.534;20.382;2024-01-27T00:39:57;2.80;99.90
28520;DHT22;15732;48.534;20.382;2024-01-27T00:42:25;2.80;99.90
28520;DHT22;15732;48.534;20.382;2024-01-27T00:44:52;2.70;99.90
28520;DHT22;15732;48.534;20.382;2024-01-27T00:47:19;2.50;99.90
28520;DHT22;15732;48.534;20.382;2024-01-27T00:49:46;2.50;99.90
28520;DHT22;15732;48.534;20.382;2024-01-27T00:52:17;2.40;99.90
28520;DHT22;15732;48.534;20.382;2024-01-27T00:54:44;2.40;99.90
28520;DHT22;15732;48.534;20.382;2024-01-27T00:57:12;2.40;99.90
28520;DHT22;15732;48.534;20.382;2024-01-27T00:59:39;2.40;99.90
28520;DHT22;15732;48.534;20.382;2024-01-27T01:02:06;2.40;99.90
28520;DHT22;15732;48.534;20.382;2024-01-27T01:04:33;2.40;99.90
28520;DHT22;15732;48.534;20.382;2024-01-27T01:07:04;2.40;99.90
28520;DHT22;15732;48.534;20.382;2024-01-27T01:09:32;2.40;99.90
28520;DHT22;15732;48.534;20.382;2024-01-27T01:11:59;2.50;99.90
28520;DHT22;15732;48.534;20.382;2024-01-27T01:14:31;2.50;99.90
28520;DHT22;15732;48.534;20.382;2024-01-27T01:17:02;2.50;99.90
28520;DHT22;15732;48.534;20.382;2024-01-27T01:19:33;2.50;99.90
28520;DHT22;15732;48.534;20.382;2024-01-27T01:22:01;2.50;99.90
28520;DHT22;15732;48.534;20.382;2024-01-27T01:24:29;2.50;99.90
28520;DHT22;15732;48.534;20.382;2024-01-27T01:26:56;2.50;99.90
28520;DHT22;15732;48.534;20.382;2024-01-27T01:29:27;2.60;99.90
28520;DHT22;15732;48.534;20.382;2024-01-27T01:31:54;2.60;99.90
28520;DHT22;15732;48.534;20.382;2024-01-27T01:34:21;2.60;99.90
28520;DHT22;15732;48.534;20.382;2024-01-27T01:36:48;2.50;99.90
28520;DHT22;15732;48.534;20.382;2024-01-27T01:39:15;2.60;99.90
28520;DHT22;15732;48.534;20.382;2024-01-27T01:41:42;2.60;99.90
28520;DHT22;15732;48.534;20.382;2024-01-27T01:44:09;2.60;99.90
28520;DHT22;15732;48.534;20.382;2024-01-27T01:46:36;2.50;99.90
28520;DHT22;15732;48.534;20.382;2024-01-27T01:49:04;2.40;99.90
28520;DHT22;15732;48.534;20.382;2024-01-27T01:51:31;2.30;99.90
28520;DHT22;15732;48.534;20.382;2024-01-27T01:53:58;2.30;99.90
28520;DHT22;15732;48.534;20.382;2024-01-27T01:56:26;2.20;99.90
28520;DHT22;15732;48.534;20.382;2024-01-27T01:58:54;2.20;99.90
28520;DHT22;15732;48.534;20.382;2024-01-27T02:01:26;2.20;99.90
28520;DHT22;15732;48.534;20.382;2024-01-27T02:03:57;2.20;99.90
28520;DHT22;15732;48.534;20.382;2024-01-27T02:06:24;2.30;99.90
28520;DHT22;15732;48.534;20.382;2024-01-27T02:08:55;2.20;99.90
28520;DHT22;15732;48.534;20.382;2024-01-27T02:11:22;2.10;99.90
28520;DHT22;15732;48.534;20.382;2024-01-27T02:13:53;2.10;99.90
28520;DHT22;15732;48.534;20.382;2024-01-27T02:16:20;2.10;99.90
28520;DHT22;15732;48.534;20.382;2024-01-27T02:18:48;2.10;99.90
28520;DHT22;15732;48.534;20.382;2024-01-27T02:21:19;2.10;99.90
28520;DHT22;15732;48.534;20.382;2024-01-27T02:23:46;2.10;99.90
28520;DHT22;15732;48.534;20.382;2024-01-27T02:26:13;2.20;99.90
28520;DHT22;15732;48.534;20.382;2024-01-27T02:28:40;2.20;99.90
28520;DHT22;15732;48.534;20.382;2024-01-27T02:31:11;2.10;99.90
28520;DHT22;15732;48.534;20.382;2024-01-27T02:33:42;2.10;99.90
28520;DHT22;15732;48.534;20.382;2024-01-27T02:36:13;2.10;99.90
28520;DHT22;15732;48.534;20.382;2024-01-27T02:38:41;2.10;99.90
28520;DHT22;15732;48.534;20.382;2024-01-27T02:41:12;2.10;99.90
28520;DHT22;15732;48.534;20.382;2024-01-27T02:43:43;2.10;99.90
28520;DHT22;15732;48.534;20.382;2024-01-27T02:46:14;2.10;99.90
28520;DHT22;15732;48.534;20.382;2024-01-27T02:48:42;2.10;99.90
28520;DHT22;15732;48.534;20.382;2024-01-27T02:51:09;2.00;99.90
28520;DHT22;15732;48.534;20.382;2024-01-27T02:53:40;2.00;99.90
28520;DHT22;15732;48.534;20.382;2024-01-27T02:56:11;2.00;99.90
28520;DHT22;15732;48.534;20.382;2024-01-27T02:58:38;1.90;99.90
28520;DHT22;15732;48.534;20.382;2024-01-27T03:01:05;1.90;99.90
28520;DHT22;15732;48.534;20.382;2024-01-27T03:03:32;1.90;99.90
28520;DHT22;15732;48.534;20.382;2024-01-27T03:05:59;2.00;99.90
28520;DHT22;15732;48.534;20.382;2024-01-27T03:08:26;2.00;99.90
28520;DHT22;15732;48.534;20.382;2024-01-27T03:10:53;2.00;99.90
28520;DHT22;15732;48.534;20.382;2024-01-27T03:13:20;2.00;99.90
28520;DHT22;15732;48.534;20.382;2024-01-27T03:15:52;2.10;99.90
28520;DHT22;15732;48.534;20.382;2024-01-27T03:18:19;2.10;99.90
28520;DHT22;15732;48.534;20.382;2024-01-27T03:20:47;2.00;99.90
28520;DHT22;15732;48.534;20.382;2024-01-27T03:23:18;1.90;99.90
28520;DHT22;15732;48.534;20.382;2024-01-27T03:25:49;1.80;99.90
28520;DHT22;15732;48.534;20.382;2024-01-27T03:28:17;1.70;99.90
28520;DHT22;15732;48.534;20.382;2024-01-27T03:30:48;1.70;99.90
28520;DHT22;15732;48.534;20.382;2024-01-27T03:33:19;1.70;99.90
28520;DHT22;15732;48.534;20.382;2024-01-27T03:35:52;1.70;99.90
28520;DHT22;15732;48.534;20.382;2024-01-27T03:38:19;1.80;99.90
28520;DHT22;15732;48.534;20.382;2024-01-27T03:40:50;1.90;99.90
28520;DHT22;15732;48.534;20.382;2024-01-27T03:43:17;1.90;99.90
28520;DHT22;15732;48.534;20.382;2024-01-27T03:45:48;2.00;99.90
28520;DHT22;15732;48.534;20.382;2024-01-27T03:48:20;2.00;99.90
28520;DHT22;15732;48.534;20.382;2024-01-27T03:50:51;2.00;99.90
28520;DHT22;15732;48.534;20.382;2024-01-27T03:53:17;2.00;99.90
28520;DHT22;15732;48.534;20.382;2024-01-27T03:55:45;2.00;99.90
28520;DHT22;15732;48.534;20.382;2024-01-27T03:58:12;1.80;99.90
28520;DHT22;15732;48.534;20.382;2024-01-27T04:00:42;1.60;99.90
28520;DHT22;15732;48.534;20.382;2024-01-27T04:03:09;1.50;99.90
28520;DHT22;15732;48.534;20.382;2024-01-27T04:05:40;1.50;99.90
28520;DHT22;15732;48.534;20.382;2024-01-27T04:08:07;1.30;99.90
28520;DHT22;15732;48.534;20.382;2024-01-27T04:10:39;1.20;99.90
28520;DHT22;15732;48.534;20.382;2024-01-27T04:13:10;1.20;99.90
28520;DHT22;15732;48.534;20.382;2024-01-27T04:15:41;1.30;99.90
28520;DHT22;15732;48.534;20.382;2024-01-27T04:18:09;1.40;99.90
28520;DHT22;15732;48.534;20.382;2024-01-27T04:20:40;1.40;99.90
28520;DHT22;15732;48.534;20.382;2024-01-27T04:23:08;1.40;99.90
28520;DHT22;15732;48.534;20.382;2024-01-27T04:25:35;1.50;99.90
28520;DHT22;15732;48.534;20.382;2024-01-27T04:28:06;1.40;99.90
28520;DHT22;15732;48.534;20.382;2024-01-27T04:30:35;1.40;99.90
28520;DHT22;15732;48.534;20.382;2024-01-27T04:33:06;1.40;99.90
28520;DHT22;15732;48.534;20.382;2024-01-27T04:35:37;1.30;99.90
28520;DHT22;15732;48.534;20.382;2024-01-27T04:38:09;1.20;99.90
28520;DHT22;15732;48.534;20.382;2024-01-27T04:40:35;1.10;99.90
28520;DHT22;15732;48.534;20.382;2024-01-27T04:43:07;1.00;99.90
28520;DHT22;15732;48.534;20.382;2024-01-27T04:45:34;1.00;99.90
28520;DHT22;15732;48.534;20.382;2024-01-27T04:48:06;1.00;99.90
28520;DHT22;15732;48.534;20.382;2024-01-27T04:50:34;1.10;99.90
28520;DHT22;15732;48.534;20.382;2024-01-27T04:53:05;1.20;99.90
28520;DHT22;15732;48.534;20.382;2024-01-27T04:55:36;1.30;99.90
28520;DHT22;15732;48.534;20.382;2024-01-27T04:58:07;1.40;99.90
28520;DHT22;15732;48.534;20.382;2024-01-27T05:00:39;1.40;99.90
28520;DHT22;15732;48.534;20.382;2024-01-27T05:03:06;1.40;99.90
28520;DHT22;15732;48.534;20.382;2024-01-27T05:05:42;1.20;99.90
28520;DHT22;15732;48.534;20.382;2024-01-27T05:08:10;1.20;99.90
28520;DHT22;15732;48.534;20.382;2024-01-27T05:10:41;1.20;99.90
28520;DHT22;15732;48.534;20.382;2024-01-27T05:13:08;1.20;99.90
28520;DHT22;15732;48.534;20.382;2024-01-27T05:15:35;1.20;99.90
28520;DHT22;15732;48.534;20.382;2024-01-27T05:18:03;1.20;99.90
28520;DHT22;15732;48.534;20.382;2024-01-27T05:20:31;1.30;99.90
28520;DHT22;15732;48.534;20.382;2024-01-27T05:22:58;1.40;99.90
28520;DHT22;15732;48.534;20.382;2024-01-27T05:25:25;1.40;99.90
28520;DHT22;15732;48.534;20.382;2024-01-27T05:27:53;1.40;99.90
28520;DHT22;15732;48.534;20.382;2024-01-27T05:30:20;1.40;99.90
28520;DHT22;15732;48.534;20.382;2024-01-27T05:32:47;1.30;99.90
28520;DHT22;15732;48.534;20.382;2024-01-27T05:35:15;1.10;99.90
28520;DHT22;15732;48.534;20.382;2024-01-27T05:37:46;1.10;99.90
28520;DHT22;15732;48.534;20.382;2024-01-27T05:40:14;1.00;99.90
28520;DHT22;15732;48.534;20.382;2024-01-27T05:42:41;1.00;99.90
28520;DHT22;15732;48.534;20.382;2024-01-27T05:45:09;1.10;99.90
28520;DHT22;15732;48.534;20.382;2024-01-27T05:47:37;1.10;99.90
28520;DHT22;15732;48.534;20.382;2024-01-27T05:50:09;1.10;99.90
28520;DHT22;15732;48.534;20.382;2024-01-27T05:52:37;1.20;99.90
28520;DHT22;15732;48.534;20.382;2024-01-27T05:55:06;1.20;99.90
28520;DHT22;15732;48.534;20.382;2024-01-27T05:57:33;1.20;99.90
28520;DHT22;15732;48.534;20.382;2024-01-27T06:00:01;1.30;99.90
28520;DHT22;15732;48.534;20.382;2024-01-27T06:02:27;1.30;99.90
28520;DHT22;15732;48.534;20.382;2024-01-27T06:04:55;1.30;99.90
28520;DHT22;15732;48.534;20.382;2024-01-27T06:07:22;1.30;99.90
28520;DHT22;15732;48.534;20.382;2024-01-27T06:09:49;1.20;99.90
28520;DHT22;15732;48.534;20.382;2024-01-27T06:12:16;1.10;99.90
28520;DHT22;15732;48.534;20.382;2024-01-27T06:14:48;1.10;99.90
28520;DHT22;15732;48.534;20.382;2024-01-27T06:17:15;1.10;99.90
28520;DHT22;15732;48.534;20.382;2024-01-27T06:19:43;1.00;99.90
28520;DHT22;15732;48.534;20.382;2024-01-27T06:22:10;1.00;99.90
28520;DHT22;15732;48.534;20.382;2024-01-27T06:24:42;1.00;99.90
28520;DHT22;15732;48.534;20.382;2024-01-27T06:27:14;1.00;99.90
28520;DHT22;15732;48.534;20.382;2024-01-27T06:29:41;1.10;99.90
28520;DHT22;15732;48.534;20.382;2024-01-27T06:32:08;1.10;99.90
28520;DHT22;15732;48.534;20.382;2024-01-27T06:34:36;1.20;99.90
28520;DHT22;15732;48.534;20.382;2024-01-27T06:37:07;1.20;99.90
28520;DHT22;15732;48.534;20.382;2024-01-27T06:39:34;1.20;99.90
28520;DHT22;15732;48.534;20.382;2024-01-27T06:42:01;1.10;99.90
28520;DHT22;15732;48.534;20.382;2024-01-27T06:44:29;1.20;99.90
28520;DHT22;15732;48.534;20.382;2024-01-27T06:47:00;1.20;99.90
28520;DHT22;15732;48.534;20.382;2024-01-27T06:49:27;1.10;99.90
28520;DHT22;15732;48.534;20.382;2024-01-27T06:51:54;1.00;99.90
28520;DHT22;15732;48.534;20.382;2024-01-27T06:54:21;0.80;99.90
28520;DHT22;15732;48.534;20.382;2024-01-27T06:56:48;0.80;99.90
28520;DHT22;15732;48.534;20.382;2024-01-27T06:59:15;0.80;99.90
28520;DHT22;15732;48.534;20.382;2024-01-27T07:01:48;0.90;99.90
28520;DHT22;15732;48.534;20.382;2024-01-27T07:04:15;0.90;99.90
28520;DHT22;15732;48.534;20.382;2024-01-27T07:06:42;1.00;99.90
28520;DHT22;15732;48.534;20.382;2024-01-27T07:09:09;1.00;99.90
28520;DHT22;15732;48.534;20.382;2024-01-27T07:11:40;1.00;99.90
28520;DHT22;15732;48.534;20.382;2024-01-27T07:14:07;1.00;99.90
28520;DHT22;15732;48.534;20.382;2024-01-27T07:16:39;1.10;99.90
28520;DHT22;15732;48.534;20.382;2024-01-27T07:19:06;1.10;99.90
28520;DHT22;15732;48.534;20.382;2024-01-27T07:21:33;1.20;99.90
28520;DHT22;15732;48.534;20.382;2024-01-27T07:24:00;1.20;99.90
28520;DHT22;15732;48.534;20.382;2024-01-27T07:26:28;1.30;99.90
28520;DHT22;15732;48.534;20.382;2024-01-27T07:28:59;1.30;99.90
28520;DHT22;15732;48.534;20.382;2024-01-27T07:31:26;1.40;99.90
28520;DHT22;15732;48.534;20.382;2024-01-27T07:33:57;1.40;99.90
28520;DHT22;15732;48.534;20.382;2024-01-27T07:36:28;1.40;99.90
28520;DHT22;15732;48.534;20.382;2024-01-27T07:38:59;1.40;99.90
28520;DHT22;15732;48.534;20.382;2024-01-27T07:41:30;1.50;99.90
28520;DHT22;15732;48.534;20.382;2024-01-27T07:43:58;1.60;99.90
28520;DHT22;15732;48.534;20.382;2024-01-27T07:46:33;1.60;99.90
28520;DHT22;15732;48.534;20.382;2024-01-27T07:49:00;1.70;99.90
28520;DHT22;15732;48.534;20.382;2024-01-27T07:51:32;1.70;99.90
28520;DHT22;15732;48.534;20.382;2024-01-27T07:53:59;1.80;99.90
28520;DHT22;15732;48.534;20.382;2024-01-27T07:56:27;1.90;99.90
28520;DHT22;15732;48.534;20.382;2024-01-27T07:58:57;2.00;99.90
28520;DHT22;15732;48.534;20.382;2024-01-27T08:01:29;2.10;99.90
28520;DHT22;15732;48.534;20.382;2024-01-27T08:03:56;2.10;99.90
28520;DHT22;15732;48.534;20.382;2024-01-27T08:06:29;2.20;99.90
28520;DHT22;15732;48.534;20.382;2024-01-27T08:08:56;2.30;99.90
28520;DHT22;15732;48.534;20.382;2024-01-27T08:11:23;2.50;99.90
28520;DHT22;15732;48.534;20.382;2024-01-27T08:13:51;2.60;99.90
28520;DHT22;15732;48.534;20.382;2024-01-27T08:16:18;2.80;99.90
28520;DHT22;15732;48.534;20.382;2024-01-27T08:18:45;3.00;99.90
28520;DHT22;15732;48.534;20.382;2024-01-27T08:21:17;3.10;99.90
28520;DHT22;15732;48.534;20.382;2024-01-27T08:23:44;3.30;99.90
28520;DHT22;15732;48.534;20.382;2024-01-27T08:26:15;3.50;99.90
28520;DHT22;15732;48.534;20.382;2024-01-27T08:28:43;3.60;99.90
28520;DHT22;15732;48.534;20.382;2024-01-27T08:31:10;3.80;99.90
28520;DHT22;15732;48.534;20.382;2024-01-27T08:33:37;3.90;99.90
28520;DHT22;15732;48.534;20.382;2024-01-27T08:36:04;4.00;99.90
28520;DHT22;15732;48.534;20.382;2024-01-27T08:38:32;4.10;99.90
28520;DHT22;15732;48.534;20.382;2024-01-27T08:40:59;4.20;99.90
28520;DHT22;15732;48.534;20.382;2024-01-27T08:43:26;4.30;99.90
28520;DHT22;15732;48.534;20.382;2024-01-27T08:45:53;4.40;99.90
28520;DHT22;15732;48.534;20.382;2024-01-27T08:48:26;4.60;99.90
28520;DHT22;15732;48.534;20.382;2024-01-27T08:50:53;4.70;99.90
28520;DHT22;15732;48.534;20.382;2024-01-27T08:53:20;4.80;99.90
28520;DHT22;15732;48.534;20.382;2024-01-27T08:55:51;4.90;99.90
28520;DHT22;15732;48.534;20.382;2024-01-27T08:58:18;4.90;99.90
28520;DHT22;15732;48.534;20.382;2024-01-27T09:00:50;5.00;99.90
28520;DHT22;15732;48.534;20.382;2024-01-27T09:03:17;5.10;99.90
28520;DHT22;15732;48.534;20.382;2024-01-27T09:05:51;5.20;99.90
28520;DHT22;15732;48.534;20.382;2024-01-27T09:08:19;5.20;99.90
28520;DHT22;15732;48.534;20.382;2024-01-27T09:10:50;5.40;99.90
28520;DHT22;15732;48.534;20.382;2024-01-27T09:13:21;5.50;99.90
28520;DHT22;15732;48.534;20.382;2024-01-27T09:15:48;5.60;99.90
28520;DHT22;15732;48.534;20.382;2024-01-27T09:18:16;5.70;99.90
28520;DHT22;15732;48.534;20.382;2024-01-27T09:20:47;5.90;99.90
28520;DHT22;15732;48.534;20.382;2024-01-27T09:23:18;6.00;99.90
28520;DHT22;15732;48.534;20.382;2024-01-27T09:25:49;6.10;99.90
28520;DHT22;15732;48.534;20.382;2024-01-27T09:28:17;6.20;99.90
28520;DHT22;15732;48.534;20.382;2024-01-27T09:30:48;6.20;99.90
28520;DHT22;15732;48.534;20.382;2024-01-27T09:33:19;6.30;99.90
28520;DHT22;15732;48.534;20.382;2024-01-27T09:35:52;6.30;99.90
28520;DHT22;15732;48.534;20.382;2024-01-27T09:38:23;6.40;99.90
28520;DHT22;15732;48.534;20.382;2024-01-27T09:40:54;6.40;99.90
28520;DHT22;15732;48.534;20.382;2024-01-27T09:43:25;6.40;99.90
28520;DHT22;15732;48.534;20.382;2024-01-27T09:45:53;6.40;99.90
28520;DHT22;15732;48.534;20.382;2024-01-27T09:48:22;6.40;99.90
28520;DHT22;15732;48.534;20.382;2024-01-27T09:50:53;6.50;99.90
28520;DHT22;15732;48.534;20.382;2024-01-27T09:53:20;6.50;99.90
28520;DHT22;15732;48.534;20.382;2024-01-27T09:55:48;6.50;99.90
28520;DHT22;15732;48.534;20.382;2024-01-27T09:58:15;6.50;99.90
28520;DHT22;15732;48.534;20.382;2024-01-27T10:00:46;6.60;99.90
28520;DHT22;15732;48.534;20.382;2024-01-27T10:03:13;6.60;99.90
28520;DHT22;15732;48.534;20.382;2024-01-27T10:05:41;6.70;99.90
28520;DHT22;15732;48.534;20.382;2024-01-27T10:08:13;6.70;99.90
28520;DHT22;15732;48.534;20.382;2024-01-27T10:10:44;6.70;99.90
28520;DHT22;15732;48.534;20.382;2024-01-27T10:13:17;6.80;99.90
28520;DHT22;15732;48.534;20.382;2024-01-27T10:16:05;6.80;99.90
28520;DHT22;15732;48.534;20.382;2024-01-27T10:19:21;6.80;99.90
28520;DHT22;15732;48.534;20.382;2024-01-27T10:22:00;6.90;99.90
28520;DHT22;15732;48.534;20.382;2024-01-27T10:24:32;6.90;99.90
28520;DHT22;15732;48.534;20.382;2024-01-27T10:27:04;6.90;99.90
28520;DHT22;15732;48.534;20.382;2024-01-27T10:29:35;6.90;99.90
28520;DHT22;15732;48.534;20.382;2024-01-27T10:32:09;7.00;99.90
28520;DHT22;15732;48.534;20.382;2024-01-27T10:34:36;7.00;99.90
28520;DHT22;15732;48.534;20.382;2024-01-27T10:37:09;7.00;99.90
28520;DHT22;15732;48.534;20.382;2024-01-27T10:39:38;7.00;99.90
28520;DHT22;15732;48.534;20.382;2024-01-27T10:42:06;7.10;99.90
28520;DHT22;15732;48.534;20.382;2024-01-27T10:44:40;7.10;99.90
28520;DHT22;15732;48.534;20.382;2024-01-27T10:47:15;7.10;99.90
28520;DHT22;15732;48.534;20.382;2024-01-27T10:49:49;7.20;99.90
28520;DHT22;15732;48.534;20.382;2024-01-27T10:52:21;7.30;99.90
28520;DHT22;15732;48.534;20.382;2024-01-27T10:54:51;7.40;99.90
28520;DHT22;15732;48.534;20.382;2024-01-27T10:57:19;7.40;99.90
28520;DHT22;15732;48.534;20.382;2024-01-27T10:59:48;7.40;99.90
28520;DHT22;15732;48.534;20.382;2024-01-27T11:02:21;7.40;99.90
28520;DHT22;15732;48.534;20.382;2024-01-27T11:04:52;7.50;99.90
28520;DHT22;15732;48.534;20.382;2024-01-27T11:07:21;7.60;99.90
28520;DHT22;15732;48.534;20.382;2024-01-27T11:09:53;7.60;99.90
28520;DHT22;15732;48.534;20.382;2024-01-27T11:12:21;7.70;99.90
28520;DHT22;15732;48.534;20.382;2024-01-27T11:14:53;7.80;99.90
28520;DHT22;15732;48.534;20.382;2024-01-27T11:17:27;7.80;99.90
28520;DHT22;15732;48.534;20.382;2024-01-27T11:19:56;7.80;99.90
28520;DHT22;15732;48.534;20.382;2024-01-27T11:22:30;7.80;99.90
28520;DHT22;15732;48.534;20.382;2024-01-27T11:25:16;7.90;99.90
28520;DHT22;15732;48.534;20.382;2024-01-27T11:27:45;7.90;99.90
28520;DHT22;15732;48.534;20.382;2024-01-27T11:30:26;7.70;99.90
28520;DHT22;15732;48.534;20.382;2024-01-27T11:33:13;7.70;99.90
28520;DHT22;15732;48.534;20.382;2024-01-27T11:35:40;7.60;99.90
28520;DHT22;15732;48.534;20.382;2024-01-27T11:38:12;7.50;99.90
28520;DHT22;15732;48.534;20.382;2024-01-27T11:40:49;7.40;99.90
28520;DHT22;15732;48.534;20.382;2024-01-27T11:43:20;7.30;99.90
28520;DHT22;15732;48.534;20.382;2024-01-27T11:46:00;7.30;99.90
28520;DHT22;15732;48.534;20.382;2024-01-27T11:48:27;7.20;99.90
28520;DHT22;15732;48.534;20.382;2024-01-27T11:51:10;7.20;99.90
28520;DHT22;15732;48.534;20.382;2024-01-27T11:53:41;7.20;99.90
28520;DHT22;15732;48.534;20.382;2024-01-27T11:56:13;7.10;99.90
28520;DHT22;15732;48.534;20.382;2024-01-27T11:58:49;7.10;99.90
28520;DHT22;15732;48.534;20.382;2024-01-27T12:01:20;7.00;99.90
28520;DHT22;15732;48.534;20.382;2024-01-27T12:03:48;7.00;99.90
28520;DHT22;15732;48.534;20.382;2024-01-27T12:06:15;7.00;99.90
28520;DHT22;15732;48.534;20.382;2024-01-27T12:08:42;7.00;99.90
28520;DHT22;15732;48.534;20.382;2024-01-27T12:11:16;6.90;99.90
28520;DHT22;15732;48.534;20.382;2024-01-27T12:13:47;6.90;99.90
28520;DHT22;15732;48.534;20.382;2024-01-27T12:16:15;6.90;99.90
28520;DHT22;15732;48.534;20.382;2024-01-27T12:18:46;6.90;99.90
28520;DHT22;15732;48.534;20.382;2024-01-27T12:21:22;6.90;99.90
28520;DHT22;15732;48.534;20.382;2024-01-27T12:23:53;6.90;99.90
28520;DHT22;15732;48.534;20.382;2024-01-27T12:26:40;6.90;99.90
28520;DHT22;15732;48.534;20.382;2024-01-27T12:29:11;6.90;99.90
28520;DHT22;15732;48.534;20.382;2024-01-27T12:31:44;6.90;99.90
28520;DHT22;15732;48.534;20.382;2024-01-27T12:34:12;6.80;99.90
28520;DHT22;15732;48.534;20.382;2024-01-27T12:36:43;6.80;99.90
28520;DHT22;15732;48.534;20.382;2024-01-27T12:39:11;6.90;99.90
28520;DHT22;15732;48.534;20.382;2024-01-27T12:41:43;6.90;99.90
28520;DHT22;15732;48.534;20.382;2024-01-27T12:44:10;6.80;99.90
28520;DHT22;15732;48.534;20.382;2024-01-27T12:46:41;6.70;99.90
28520;DHT22;15732;48.534;20.382;2024-01-27T12:49:13;6.70;99.90
28520;DHT22;15732;48.534;20.382;2024-01-27T12:51:39;6.70;99.90
28520;DHT22;15732;48.534;20.382;2024-01-27T12:54:06;6.70;99.90
28520;DHT22;15732;48.534;20.382;2024-01-27T12:56:37;6.70;99.90
28520;DHT22;15732;48.534;20.382;2024-01-27T12:59:08;6.60;99.90
28520;DHT22;15732;48.534;20.382;2024-01-27T13:01:35;6.70;99.90
28520;DHT22;15732;48.534;20.382;2024-01-27T13:04:07;6.70;99.90
28520;DHT22;15732;48.534;20.382;2024-01-27T13:06:38;6.70;99.90
28520;DHT22;15732;48.534;20.382;2024-01-27T13:09:09;6.70;99.90
28520;DHT22;15732;48.534;20.382;2024-01-27T13:11:39;6.70;99.90
28520;DHT22;15732;48.534;20.382;2024-01-27T13:14:10;6.70;99.90
28520;DHT22;15732;48.534;20.382;2024-01-27T13:16:42;6.70;99.90
28520;DHT22;15732;48.534;20.382;2024-01-27T13:19:13;6.70;99.90
28520;DHT22;15732;48.534;20.382;2024-01-27T13:21:40;6.70;99.90
28520;DHT22;15732;48.534;20.382;2024-01-27T13:24:11;6.70;99.90
28520;DHT22;15732;48.534;20.382;2024-01-27T13:26:38;6.70;99.90
28520;DHT22;15732;48.534;20.382;2024-01-27T13:29:09;6.70;99.90
28520;DHT22;15732;48.534;20.382;2024-01-27T13:31:40;6.70;99.90
28520;DHT22;15732;48.534;20.382;2024-01-27T13:34:11;6.80;99.90
28520;DHT22;15732;48.534;20.382;2024-01-27T13:36:38;6.70;99.90
28520;DHT22;15732;48.534;20.382;2024-01-27T13:39:09;6.70;99.90
28520;DHT22;15732;48.534;20.382;2024-01-27T13:41:36;6.80;99.90
28520;DHT22;15732;48.534;20.382;2024-01-27T13:44:04;6.80;99.90
28520;DHT22;15732;48.534;20.382;2024-01-27T13:46:32;6.70;99.90
28520;DHT22;15732;48.534;20.382;2024-01-27T13:48:59;6.70;99.90
28520;DHT22;15732;48.534;20.382;2024-01-27T13:51:26;6.70;99.90
28520;DHT22;15732;48.534;20.382;2024-01-27T13:53:57;6.70;99.90
28520;DHT22;15732;48.534;20.382;2024-01-27T13:56:24;6.70;99.90
28520;DHT22;15732;48.534;20.382;2024-01-27T13:58:52;6.60;99.90
28520;DHT22;15732;48.534;20.382;2024-01-27T14:01:20;6.60;99.90
28520;DHT22;15732;48.534;20.382;2024-01-27T14:03:51;6.60;99.90
28520;DHT22;15732;48.534;20.382;2024-01-27T14:06:18;6.60;99.90
28520;DHT22;15732;48.534;20.382;2024-01-27T14:08:50;6.60;99.90
28520;DHT22;15732;48.534;20.382;2024-01-27T14:11:21;6.60;99.90
28520;DHT22;15732;48.534;20.382;2024-01-27T14:13:49;6.60;99.90
28520;DHT22;15732;48.534;20.382;2024-01-27T14:16:16;6.50;99.90
28520;DHT22;15732;48.534;20.382;2024-01-27T14:18:43;6.50;99.90
28520;DHT22;15732;48.534;20.382;2024-01-27T14:21:10;6.50;99.90
28520;DHT22;15732;48.534;20.382;2024-01-27T14:23:37;6.40;99.90
28520;DHT22;15732;48.534;20.382;2024-01-27T14:26:05;6.40;99.90
28520;DHT22;15732;48.534;20.382;2024-01-27T14:28:34;6.40;99.90
28520;DHT22;15732;48.534;20.382;2024-01-27T14:31:01;6.30;99.90
28520;DHT22;15732;48.534;20.382;2024-01-27T14:33:29;6.30;99.90
28520;DHT22;15732;48.534;20.382;2024-01-27T14:36:00;6.20;99.90
28520;DHT22;15732;48.534;20.382;2024-01-27T14:38:31;6.20;99.90
28520;DHT22;15732;48.534;20.382;2024-01-27T14:41:02;6.20;99.90
28520;DHT22;15732;48.534;20.382;2024-01-27T14:43:30;6.20;99.90
28520;DHT22;15732;48.534;20.382;2024-01-27T14:46:01;6.20;99.90
28520;DHT22;15732;48.534;20.382;2024-01-27T14:48:28;6.10;99.90
28520;DHT22;15732;48.534;20.382;2024-01-27T14:50:59;6.10;99.90
28520;DHT22;15732;48.534;20.382;2024-01-27T14:53:30;6.10;99.90
28520;DHT22;15732;48.534;20.382;2024-01-27T14:56:01;6.00;99.90
28520;DHT22;15732;48.534;20.382;2024-01-27T14:58:28;6.00;99.90
28520;DHT22;15732;48.534;20.382;2024-01-27T15:00:56;6.00;99.90
28520;DHT22;15732;48.534;20.382;2024-01-27T15:03:23;6.00;99.90
28520;DHT22;15732;48.534;20.382;2024-01-27T15:05:50;6.00;99.90
28520;DHT22;15732;48.534;20.382;2024-01-27T15:08:22;5.90;99.90
28520;DHT22;15732;48.534;20.382;2024-01-27T15:10:53;5.90;99.90
28520;DHT22;15732;48.534;20.382;2024-01-27T15:13:24;5.80;99.90
28520;DHT22;15732;48.534;20.382;2024-01-27T15:15:52;5.70;99.90
28520;DHT22;15732;48.534;20.382;2024-01-27T15:18:19;5.70;99.90
28520;DHT22;15732;48.534;20.382;2024-01-27T15:20:48;5.70;99.90
28520;DHT22;15732;48.534;20.382;2024-01-27T15:23:15;5.70;99.90
28520;DHT22;15732;48.534;20.382;2024-01-27T15:25:42;5.70;99.90
28520;DHT22;15732;48.534;20.382;2024-01-27T15:28:14;5.70;99.90
28520;DHT22;15732;48.534;20.382;2024-01-27T15:30:42;5.60;99.90
28520;DHT22;15732;48.534;20.382;2024-01-27T15:33:16;5.60;99.90
28520;DHT22;15732;48.534;20.382;2024-01-27T15:35:43;5.60;99.90
28520;DHT22;15732;48.534;20.382;2024-01-27T15:38:14;5.60;99.90
28520;DHT22;15732;48.534;20.382;2024-01-27T15:40:41;5.60;99.90
28520;DHT22;15732;48.534;20.382;2024-01-27T15:43:08;5.60;99.90
28520;DHT22;15732;48.534;20.382;2024-01-27T15:45:36;5.50;99.90